Time;durP1;ratioP1;P1;durP2;ratioP2;P2;SDS_P1;SDS_P2;PMS_P1;PMS_P2;Temp;Humidity;BMP_temperature;BMP_pressure;BME280_temperature;BME280_humidity;BME280_pressure;Samples;Min_cycle;Max_cycle;Signal;HPM_P1;HPM_P2
2023/12/07 00:01:34;;;;;;;44.17;24.33;;;;;;;2.43;83.43;92732.47;2077128;69;20103;-81
2023/12/07 00:04:01;;;;;;;43.90;23.23;;;;;;;2.37;83.68;92729.13;2077778;69;20174;-77
2023/12/07 00:06:26;;;;;;;45.25;24.42;;;;;;;2.48;83.04;92723.19;2075458;69;20140;-81
2023/12/07 00:08:52;;;;;;;43.47;24.73;;;;;;;2.45;82.53;92721.53;2074424;69;20145;-85
2023/12/07 00:11:18;;;;;;;58.05;27.77;;;;;;;2.35;83.42;92719.88;2074745;69;20147;-89
2023/12/07 00:13:44;;;;;;;53.15;27.55;;;;;;;2.44;83.14;92720.03;2070793;69;20112;-83
2023/12/07 00:16:10;;;;;;;50.10;25.58;;;;;;;2.47;82.64;92707.78;2078501;69;20302;-81
2023/12/07 00:18:35;;;;;;;56.60;27.02;;;;;;;2.46;82.93;92711.13;2077792;69;20107;-81
2023/12/07 00:21:01;;;;;;;48.05;26.50;;;;;;;2.42;82.89;92717.06;2078246;69;20125;-91
2023/12/07 00:23:27;;;;;;;45.13;26.25;;;;;;;2.43;82.87;92707.47;2070703;69;20136;-88
2023/12/07 00:25:53;;;;;;;53.13;27.58;;;;;;;2.41;83.00;92718.38;2077544;69;20172;-90
2023/12/07 00:28:19;;;;;;;50.70;25.95;;;;;;;2.45;82.62;92720.78;2074497;69;20152;-84
2023/12/07 00:30:45;;;;;;;51.47;26.33;;;;;;;2.34;83.05;92727.47;2074601;69;20132;-81
2023/12/07 00:33:10;;;;;;;59.00;27.33;;;;;;;2.42;83.21;92728.19;2076902;69;20156;-88
2023/12/07 00:35:36;;;;;;;50.53;26.63;;;;;;;2.24;83.57;92734.84;2073640;69;20152;-85
2023/12/07 00:38:02;;;;;;;63.63;27.52;;;;;;;2.18;84.50;92732.28;2069361;69;20178;-93
2023/12/07 00:40:28;;;;;;;54.08;27.08;;;;;;;2.32;83.96;92735.59;2073014;69;20135;-81
2023/12/07 00:42:53;;;;;;;48.20;26.20;;;;;;;2.39;83.92;92745.25;2072681;69;20162;-87
2023/12/07 00:45:19;;;;;;;49.22;27.10;;;;;;;2.46;83.28;92741.72;2069715;69;20160;-92
2023/12/07 00:47:45;;;;;;;46.58;26.50;;;;;;;2.46;83.46;92742.44;2069494;69;20136;-92
2023/12/07 00:50:14;;;;;;;44.42;24.27;;;;;;;2.27;83.27;92748.38;2073196;69;20167;-91
2023/12/07 00:52:43;;;;;;;39.63;22.02;;;;;;;2.42;83.53;92758.00;2069494;69;20203;-81
2023/12/07 00:55:09;;;;;;;38.80;22.83;;;;;;;2.48;82.68;92764.13;2071341;69;20307;-89
2023/12/07 00:57:39;;;;;;;43.08;23.05;;;;;;;2.50;82.99;92755.97;2073009;69;20148;-90
2023/12/07 01:00:06;;;;;;;39.03;22.50;;;;;;;2.55;82.10;92769.66;2073167;69;20237;-91
2023/12/07 01:02:32;;;;;;;38.75;22.50;;;;;;;2.54;82.38;92773.75;2072783;69;20215;-86
2023/12/07 01:04:57;;;;;;;37.88;21.90;;;;;;;2.33;83.06;92773.19;2072653;69;20155;-89
2023/12/07 01:07:23;;;;;;;37.70;21.65;;;;;;;2.33;83.54;92767.63;2073246;69;20217;-93
2023/12/07 01:09:49;;;;;;;38.05;21.25;;;;;;;2.35;83.55;92776.19;2069936;69;20646;-91
2023/12/07 01:12:15;;;;;;;54.05;27.45;;;;;;;2.01;85.26;92773.72;2069970;69;20233;-93
2023/12/07 01:14:41;;;;;;;49.17;25.55;;;;;;;2.21;85.18;92783.22;2073349;69;20137;-93
2023/12/07 01:17:08;;;;;;;44.55;25.67;;;;;;;2.35;84.14;92775.44;2070527;69;20172;-91
2023/12/07 01:19:35;;;;;;;47.00;26.55;;;;;;;2.43;83.44;92782.47;2070874;69;20191;-92
2023/12/07 01:22:01;;;;;;;44.60;25.85;;;;;;;2.45;83.46;92779.13;2073717;69;20157;-90
2023/12/07 01:24:27;;;;;;;42.00;24.30;;;;;;;2.45;83.27;92782.66;2069794;69;20145;-93
2023/12/07 01:26:53;;;;;;;39.03;23.40;;;;;;;2.50;83.15;92794.88;2070441;69;20251;-91
2023/12/07 01:29:18;;;;;;;38.45;22.10;;;;;;;2.55;83.11;92794.69;2075258;69;20228;-90
2023/12/07 01:31:45;;;;;;;41.17;22.83;;;;;;;2.50;83.24;92792.84;2074045;69;20144;-92
2023/12/07 01:34:11;;;;;;;40.22;22.65;;;;;;;2.48;83.21;92792.66;2073711;69;20140;-93
2023/12/07 01:36:38;;;;;;;40.83;22.60;;;;;;;2.52;83.14;92801.38;2069598;69;20624;-87
2023/12/07 01:39:04;;;;;;;44.47;25.67;;;;;;;2.29;83.60;92797.81;2072386;69;20180;-90
2023/12/07 01:41:30;;;;;;;45.80;26.98;;;;;;;1.92;85.44;92799.25;2073127;69;20179;-87
2023/12/07 01:43:55;;;;;;;70.55;29.50;;;;;;;2.07;85.70;92801.34;2073079;69;20144;-92
2023/12/07 01:46:25;;;;;;;47.75;27.52;;;;;;;2.35;84.75;92809.50;2073267;69;20148;-87
2023/12/07 01:48:51;;;;;;;46.85;27.38;;;;;;;2.46;83.98;92800.78;2069977;69;20206;-91
2023/12/07 01:51:21;;;;;;;47.35;26.52;;;;;;;2.49;82.77;92798.97;2072648;69;20140;-90
2023/12/07 01:53:48;;;;;;;46.13;26.30;;;;;;;2.48;83.45;92805.81;2069770;69;20189;-89
2023/12/07 01:56:15;;;;;;;48.70;27.40;;;;;;;2.46;83.27;92800.78;2069010;69;20619;-90
2023/12/07 01:58:42;;;;;;;48.40;28.13;;;;;;;2.25;84.18;92789.88;2072089;69;20259;-90
2023/12/07 02:01:11;;;;;;;46.50;26.77;;;;;;;2.39;83.57;92804.34;2068641;69;20144;-86
2023/12/07 02:03:40;;;;;;;46.65;26.88;;;;;;;2.46;83.37;92803.56;2071778;69;20151;-83
2023/12/07 02:06:06;;;;;;;48.15;26.92;;;;;;;2.41;83.33;92809.31;2071440;69;20584;-85
2023/12/07 02:08:33;;;;;;;50.55;27.15;;;;;;;2.27;83.71;92809.50;2071514;69;20570;-85
2023/12/07 02:11:01;;;;;;;48.95;27.00;;;;;;;1.96;84.25;92783.72;2071481;69;20156;-82
2023/12/07 02:13:27;;;;;;;48.92;26.52;;;;;;;1.94;85.41;92802.25;2071517;69;20175;-82
2023/12/07 02:15:58;;;;;;;49.63;26.33;;;;;;;2.23;84.61;92800.78;2071585;69;20145;-87
2023/12/07 02:19:05;;;;;;;46.50;25.52;;;;;;;2.28;84.45;92799.13;2071618;69;20648;-84
2023/12/07 02:21:40;;;;;;;46.72;25.98;;;;;;;2.28;84.09;92808.19;2069548;69;20148;-82
2023/12/07 02:24:06;;;;;;;47.13;26.98;;;;;;;2.19;84.33;92817.06;2071305;69;20243;-84
2023/12/07 02:26:37;;;;;;;46.08;26.17;;;;;;;2.29;83.96;92812.47;2071466;69;20652;-84
2023/12/07 02:29:07;;;;;;;48.63;26.38;;;;;;;1.80;85.44;92817.56;2065627;69;20536;-84
2023/12/07 02:31:34;;;;;;;49.42;26.83;;;;;;;1.76;87.37;92827.00;2071634;69;20628;-81
2023/12/07 02:33:59;;;;;;;49.80;26.40;;;;;;;2.05;86.04;92829.66;2071290;69;20176;-79
2023/12/07 02:36:33;;;;;;;44.63;25.45;;;;;;;2.20;84.73;92838.03;2071527;69;20148;-84
2023/12/07 02:39:01;;;;;;;47.58;25.95;;;;;;;2.19;84.58;92838.56;2071538;69;20229;-86
2023/12/07 02:41:33;;;;;;;42.65;24.88;;;;;;;2.26;83.50;92840.63;2071585;69;20184;-85
2023/12/07 02:44:03;;;;;;;43.25;25.35;;;;;;;2.21;84.11;92852.66;2065782;69;20344;-88
2023/12/07 02:46:33;;;;;;;42.58;24.52;;;;;;;2.24;84.08;92849.50;2071539;69;20246;-87
2023/12/07 02:49:03;;;;;;;42.05;24.17;;;;;;;2.13;84.71;92841.53;2068313;69;20167;-86
2023/12/07 02:51:32;;;;;;;47.75;25.15;;;;;;;2.15;84.76;92849.28;2071528;69;20159;-87
2023/12/07 02:54:02;;;;;;;43.72;24.92;;;;;;;2.22;84.03;92831.91;2071482;69;20180;-85
2023/12/07 02:56:31;;;;;;;45.42;25.40;;;;;;;2.36;83.72;92851.94;2068105;69;20223;-86
2023/12/07 02:59:00;;;;;;;42.95;25.20;;;;;;;2.28;83.92;92855.44;2071492;69;20244;-86
2023/12/07 03:01:27;;;;;;;41.00;24.13;;;;;;;2.33;83.53;92847.47;2071548;69;20160;-85
2023/12/07 03:03:52;;;;;;;38.40;23.23;;;;;;;2.35;83.33;92844.91;2071431;69;20156;-85
2023/12/07 03:06:19;;;;;;;38.60;23.90;;;;;;;2.36;83.18;92849.16;2071536;69;20214;-79
2023/12/07 03:08:45;;;;;;;40.00;23.25;;;;;;;2.40;83.22;92844.72;2071428;69;20145;-81
2023/12/07 03:11:14;;;;;;;36.28;22.15;;;;;;;2.38;82.90;92843.78;2068040;69;20159;-88
2023/12/07 03:13:40;;;;;;;39.10;23.13;;;;;;;2.36;82.95;92840.81;2071400;69;20183;-87
2023/12/07 03:16:09;;;;;;;39.03;23.15;;;;;;;2.37;82.73;92845.06;2065303;69;20167;-87
2023/12/07 03:18:36;;;;;;;37.90;23.00;;;;;;;2.33;82.74;92850.97;2071432;69;20148;-85
2023/12/07 03:21:03;;;;;;;36.78;21.85;;;;;;;2.25;82.83;92853.78;2071615;69;20190;-84
2023/12/07 03:23:28;;;;;;;35.40;21.30;;;;;;;2.29;82.71;92859.72;2071483;69;20551;-87
2023/12/07 03:25:54;;;;;;;34.80;20.88;;;;;;;2.28;82.57;92857.47;2071464;69;20604;-85
2023/12/07 03:28:20;;;;;;;33.78;20.17;;;;;;;2.33;82.22;92864.88;2064932;69;20228;-84
2023/12/07 03:30:45;;;;;;;34.97;20.38;;;;;;;2.31;82.62;92869.53;2071314;69;20152;-84
2023/12/07 03:33:11;;;;;;;31.63;19.23;;;;;;;2.36;81.68;92863.78;2071545;69;20140;-86
2023/12/07 03:35:37;;;;;;;30.40;18.60;;;;;;;2.20;82.41;92865.81;2068174;69;20227;-85
2023/12/07 03:38:02;;;;;;;30.65;18.15;;;;;;;2.15;82.88;92866.69;2071071;69;20596;-87
2023/12/07 03:40:28;;;;;;;33.45;18.77;;;;;;;2.06;83.05;92869.28;2071456;69;20144;-85
2023/12/07 03:42:54;;;;;;;34.85;20.88;;;;;;;1.73;84.20;92858.63;2068105;69;20132;-85
2023/12/07 03:45:20;;;;;;;37.38;20.48;;;;;;;1.80;84.06;92870.31;2071468;69;20172;-87
2023/12/07 03:47:45;;;;;;;38.58;22.15;;;;;;;1.80;84.03;92867.53;2071463;69;20140;-87
2023/12/07 03:50:11;;;;;;;40.35;21.88;;;;;;;2.00;83.44;92872.22;2071369;69;20685;-86
2023/12/07 03:52:37;;;;;;;39.83;22.33;;;;;;;2.03;83.22;92862.78;2071108;69;20183;-86
2023/12/07 03:55:05;;;;;;;37.58;22.05;;;;;;;2.05;83.32;92851.88;2071533;69;20147;-85
2023/12/07 03:57:31;;;;;;;38.35;21.05;;;;;;;1.99;83.12;92865.94;2071347;69;20693;-85
2023/12/07 03:59:56;;;;;;;39.20;22.50;;;;;;;2.06;82.47;92867.22;2066654;69;20141;-87
2023/12/07 04:02:22;;;;;;;37.20;22.27;;;;;;;2.02;82.46;92873.16;2064766;69;20152;-83
2023/12/07 04:04:48;;;;;;;37.47;22.27;;;;;;;1.99;82.89;92867.97;2064928;69;20172;-87
2023/12/07 04:07:15;;;;;;;36.13;21.13;;;;;;;2.11;82.94;92862.78;2068178;69;20172;-87
2023/12/07 04:09:42;;;;;;;35.13;21.08;;;;;;;2.11;82.75;92863.56;2064971;69;20147;-86
2023/12/07 04:12:07;;;;;;;34.65;19.20;;;;;;;2.18;82.38;92862.81;2068328;69;20141;-85
2023/12/07 04:14:33;;;;;;;39.60;22.48;;;;;;;2.06;82.82;92872.03;2068164;69;20201;-87
2023/12/07 04:16:58;;;;;;;37.60;21.80;;;;;;;2.13;82.76;92874.84;2068197;69;20137;-87
2023/12/07 04:19:24;;;;;;;36.60;20.67;;;;;;;2.18;81.60;92873.19;2065163;69;20145;-85
2023/12/07 04:21:51;;;;;;;33.30;20.80;;;;;;;2.11;82.99;92877.44;2068597;69;20160;-87
2023/12/07 04:24:18;;;;;;;30.48;17.95;;;;;;;2.15;82.40;92879.84;2068595;69;20152;-86
2023/12/07 04:26:45;;;;;;;22.45;13.38;;;;;;;2.15;82.12;92883.34;2068965;69;20298;-82
2023/12/07 04:29:11;;;;;;;18.80;12.05;;;;;;;2.19;81.96;92894.84;2068865;69;20251;-77
2023/12/07 04:31:37;;;;;;;28.17;17.25;;;;;;;2.05;82.31;92893.53;2065161;69;20377;-86
2023/12/07 04:34:02;;;;;;;29.90;17.80;;;;;;;2.06;82.72;92888.72;2065234;69;20148;-83
2023/12/07 04:36:28;;;;;;;38.22;18.90;;;;;;;1.99;83.60;92890.91;2068547;69;20620;-81
2023/12/07 04:38:53;;;;;;;33.72;19.40;;;;;;;2.15;82.77;92897.25;2068291;69;20149;-88
2023/12/07 04:41:22;;;;;;;36.85;20.02;;;;;;;2.15;82.71;92900.03;2065283;69;20152;-86
2023/12/07 04:43:47;;;;;;;32.20;19.58;;;;;;;2.22;82.38;92901.34;2068772;69;20553;-81
2023/12/07 04:46:13;;;;;;;34.47;19.83;;;;;;;2.19;82.07;92897.63;2068718;69;20190;-88
2023/12/07 04:48:40;;;;;;;31.50;18.95;;;;;;;2.22;82.02;92899.31;2069361;69;20207;-85
2023/12/07 04:51:06;;;;;;;35.40;19.65;;;;;;;2.22;82.71;92907.66;2065559;69;20243;-82
2023/12/07 04:53:31;;;;;;;30.52;18.55;;;;;;;2.26;81.99;92908.03;2068742;69;20210;-87
2023/12/07 04:55:57;;;;;;;32.40;18.70;;;;;;;2.26;82.21;92898.97;2068761;69;20184;-86
2023/12/07 04:58:22;;;;;;;28.38;17.77;;;;;;;2.33;81.49;92908.59;2070602;69;20137;-86
2023/12/07 05:00:48;;;;;;;30.20;17.98;;;;;;;2.32;81.87;92896.00;2071115;69;20140;-83
2023/12/07 05:03:14;;;;;;;28.40;17.50;;;;;;;2.27;82.13;92903.94;2064077;69;20136;-77
2023/12/07 05:05:39;;;;;;;30.30;18.50;;;;;;;2.30;82.14;92899.34;2069893;69;20603;-78
2023/12/07 05:08:05;;;;;;;30.60;18.65;;;;;;;2.25;82.50;92898.22;2065744;69;20152;-76
2023/12/07 05:10:32;;;;;;;29.10;17.42;;;;;;;2.28;82.10;92896.34;2070482;69;20145;-81
2023/12/07 05:12:58;;;;;;;34.53;19.02;;;;;;;2.31;81.96;92894.53;2071168;69;20176;-84
2023/12/07 05:15:24;;;;;;;33.83;18.60;;;;;;;2.31;82.16;92897.31;2071614;69;20172;-83
2023/12/07 05:17:50;;;;;;;30.35;17.83;;;;;;;2.26;81.85;92904.50;2070478;69;20256;-81
2023/12/07 05:20:16;;;;;;;23.25;14.07;;;;;;;2.24;81.62;92907.09;2069173;69;20231;-80
2023/12/07 05:22:41;;;;;;;17.08;10.20;;;;;;;2.25;81.51;92916.94;2070555;69;20144;-79
2023/12/07 05:25:07;;;;;;;13.52;6.10;;;;;;;2.19;81.22;92919.84;2070672;69;20144;-77
2023/12/07 05:27:32;;;;;;;7.85;4.72;;;;;;;2.19;80.93;92913.56;2070228;69;20140;-89
2023/12/07 05:29:59;;;;;;;5.45;2.97;;;;;;;2.13;80.93;92918.53;2069570;69;20124;-88
2023/12/07 05:32:24;;;;;;;6.22;3.50;;;;;;;2.15;80.46;92913.91;2070063;69;20137;-80
2023/12/07 05:34:50;;;;;;;6.72;4.80;;;;;;;1.97;80.65;92906.63;2070834;69;20609;-85
2023/12/07 05:37:16;;;;;;;9.35;5.80;;;;;;;2.02;80.32;92925.94;2071426;69;20149;-86
2023/12/07 05:39:41;;;;;;;8.73;5.40;;;;;;;2.04;80.51;92923.31;2070813;69;20137;-82
2023/12/07 05:42:07;;;;;;;8.95;5.38;;;;;;;1.97;80.33;92921.28;2069680;69;20152;-86
2023/12/07 05:44:32;;;;;;;46.13;18.48;;;;;;;1.95;80.82;92914.78;2068977;69;20504;-87
2023/12/07 05:46:58;;;;;;;21.38;10.45;;;;;;;2.00;80.93;92924.97;2068740;69;20504;-85
2023/12/07 05:49:25;;;;;;;29.15;12.23;;;;;;;2.01;80.66;92921.66;2065396;69;20132;-86
2023/12/07 05:51:52;;;;;;;22.15;10.73;;;;;;;2.00;80.50;92922.22;2068572;69;20163;-88
2023/12/07 05:54:20;;;;;;;19.02;9.73;;;;;;;1.93;80.80;92917.38;2068673;69;20619;-89
2023/12/07 05:56:46;;;;;;;15.25;8.77;;;;;;;1.93;80.59;92920.16;2068731;69;20236;-86
2023/12/07 05:59:12;;;;;;;19.08;9.90;;;;;;;1.93;80.35;92923.66;2068471;69;20151;-83
2023/12/07 06:01:37;;;;;;;16.88;9.27;;;;;;;1.91;80.78;92923.47;2068402;69;20528;-88
2023/12/07 06:04:03;;;;;;;22.23;12.07;;;;;;;1.89;80.93;92931.59;2068392;69;20152;-88
2023/12/07 06:06:28;;;;;;;20.25;10.88;;;;;;;1.81;80.92;92941.94;2068444;69;20149;-83
2023/12/07 06:08:54;;;;;;;16.38;9.02;;;;;;;1.78;80.48;92934.69;2068362;69;20558;-84
2023/12/07 06:11:20;;;;;;;16.88;8.90;;;;;;;1.84;80.66;92937.34;2068553;69;20191;-88
2023/12/07 06:13:45;;;;;;;17.25;9.63;;;;;;;1.85;80.26;92939.56;2068457;69;20160;-80
2023/12/07 06:16:13;;;;;;;17.45;9.82;;;;;;;1.83;80.36;92941.38;2068616;69;20199;-84
2023/12/07 06:18:39;;;;;;;15.80;9.45;;;;;;;1.88;79.99;92935.69;2065320;69;20589;-89
2023/12/07 06:21:04;;;;;;;15.85;9.30;;;;;;;1.86;80.23;92929.19;2068484;69;20152;-82
2023/12/07 06:23:30;;;;;;;19.35;10.85;;;;;;;1.87;80.75;92944.53;2068293;69;20280;-87
2023/12/07 06:25:55;;;;;;;21.13;11.30;;;;;;;1.86;80.70;92952.13;2068698;69;20137;-81
2023/12/07 06:28:22;;;;;;;20.67;11.82;;;;;;;1.93;80.37;92959.03;2065335;69;20211;-89
2023/12/07 06:30:48;;;;;;;25.58;12.48;;;;;;;1.87;80.69;92961.19;2068533;69;20151;-85
2023/12/07 06:33:14;;;;;;;29.23;15.07;;;;;;;1.84;80.65;92965.09;2068409;69;20149;-89
2023/12/07 06:35:40;;;;;;;24.67;14.70;;;;;;;1.40;82.11;92965.75;2069077;69;20232;-90
2023/12/07 06:38:06;;;;;;;26.33;15.00;;;;;;;0.85;83.56;92974.22;2063134;69;20152;-87
2023/12/07 06:40:31;;;;;;;28.05;15.57;;;;;;;1.31;82.87;92966.25;2068206;69;20137;-88
2023/12/07 06:42:57;;;;;;;27.48;15.50;;;;;;;1.15;82.46;92973.00;2068430;69;20156;-79
2023/12/07 06:45:23;;;;;;;29.02;15.82;;;;;;;1.43;82.08;92973.00;2068466;69;20535;-87
2023/12/07 06:47:48;;;;;;;28.75;15.75;;;;;;;1.43;81.92;92980.59;2068381;69;20141;-87
2023/12/07 06:50:14;;;;;;;33.55;17.45;;;;;;;1.34;82.56;92981.81;2068537;69;20137;-82
2023/12/07 06:52:41;;;;;;;31.88;17.83;;;;;;;1.53;81.85;92984.34;2068201;69;20160;-80
2023/12/07 06:55:10;;;;;;;31.25;17.15;;;;;;;1.64;81.39;92992.34;2065213;69;20164;-87
2023/12/07 06:57:36;;;;;;;31.60;17.73;;;;;;;1.45;82.00;92998.16;2068418;69;20144;-79
2023/12/07 07:00:05;;;;;;;28.63;17.38;;;;;;;1.52;81.86;93003.03;2064974;69;20604;-87
2023/12/07 07:02:31;;;;;;;26.92;15.43;;;;;;;1.51;81.45;93006.31;2068671;69;20592;-80
2023/12/07 07:04:57;;;;;;;28.17;15.75;;;;;;;1.60;81.82;93002.31;2068235;69;20143;-86
2023/12/07 07:07:22;;;;;;;23.27;14.63;;;;;;;1.27;82.04;93007.47;2067706;69;20154;-87
2023/12/07 07:09:48;;;;;;;27.00;15.02;;;;;;;1.45;82.22;93000.94;2068444;69;20147;-89
2023/12/07 07:12:13;;;;;;;26.30;14.57;;;;;;;1.35;81.56;93015.84;2068504;69;20194;-89
2023/12/07 07:14:40;;;;;;;24.08;14.43;;;;;;;1.19;82.27;93006.66;2068639;69;20152;-86
2023/12/07 07:17:06;;;;;;;25.48;14.43;;;;;;;1.36;82.07;93009.00;2068149;69;20152;-84
2023/12/07 07:19:31;;;;;;;28.75;14.32;;;;;;;1.64;80.73;93008.25;2068373;69;20508;-90
2023/12/07 07:21:57;;;;;;;24.52;14.48;;;;;;;1.68;80.61;93005.88;2069402;69;20724;-86
2023/12/07 07:24:23;;;;;;;26.98;14.90;;;;;;;1.73;80.45;93000.19;2067873;69;20144;-91
2023/12/07 07:26:48;;;;;;;25.13;14.63;;;;;;;1.77;80.70;93008.16;2068536;69;20153;-89
2023/12/07 07:29:14;;;;;;;24.30;13.98;;;;;;;1.76;80.46;93009.47;2068411;69;20164;-87
2023/12/07 07:31:39;;;;;;;26.92;14.55;;;;;;;1.72;80.43;93007.03;2068566;69;20155;-78
2023/12/07 07:34:05;;;;;;;23.58;14.25;;;;;;;1.82;80.55;93012.81;2069249;69;20161;-86
2023/12/07 07:36:32;;;;;;;25.13;13.68;;;;;;;1.92;80.17;93004.72;2068989;69;20152;-86
2023/12/07 07:38:58;;;;;;;23.77;13.30;;;;;;;1.93;80.21;93011.78;2068325;69;20144;-89
2023/12/07 07:41:24;;;;;;;25.75;13.68;;;;;;;1.58;80.48;93008.41;2068546;69;20136;-88
2023/12/07 07:43:50;;;;;;;22.25;13.18;;;;;;;1.71;81.02;93008.31;2068582;69;20613;-88
2023/12/07 07:46:16;;;;;;;24.20;13.85;;;;;;;2.03;80.23;93010.72;2068471;69;20140;-91
2023/12/07 07:48:43;;;;;;;26.15;14.45;;;;;;;2.18;79.87;93014.84;2065714;69;20156;-92
2023/12/07 07:51:08;;;;;;;23.65;13.52;;;;;;;2.26;79.39;93016.38;2068769;69;20223;-86
2023/12/07 07:53:36;;;;;;;24.73;13.55;;;;;;;2.18;79.08;93018.38;2068771;69;20156;-85
2023/12/07 07:56:01;;;;;;;23.23;12.82;;;;;;;2.30;78.99;93010.47;2068886;69;20136;-86
2023/12/07 07:58:27;;;;;;;19.17;11.23;;;;;;;1.79;77.85;93013.94;2068887;69;20222;-88
2023/12/07 08:00:54;;;;;;;20.63;11.40;;;;;;;2.06;77.95;93017.19;2069017;69;20601;-88
2023/12/07 08:03:20;;;;;;;19.88;10.05;;;;;;;1.95;76.99;93011.97;2068265;69;20153;-84
2023/12/07 08:05:45;;;;;;;17.98;9.73;;;;;;;2.11;77.01;93008.00;2069848;69;20140;-83
2023/12/07 08:08:11;;;;;;;14.95;8.32;;;;;;;2.07;76.68;93015.19;2068808;69;20140;-91
2023/12/07 08:10:38;;;;;;;11.40;7.47;;;;;;;1.96;77.04;93014.19;2068756;69;20157;-88
2023/12/07 08:13:03;;;;;;;10.43;6.70;;;;;;;1.83;76.71;93005.22;2065520;69;20602;-88
2023/12/07 08:15:29;;;;;;;11.48;6.05;;;;;;;1.91;76.63;93011.56;2068921;69;20231;-91
2023/12/07 08:17:56;;;;;;;16.35;7.38;;;;;;;1.71;75.63;93010.34;2068914;69;20151;-90
2023/12/07 08:20:22;;;;;;;12.38;6.00;;;;;;;1.23;73.54;93010.56;2065702;69;20140;-91
2023/12/07 08:22:49;;;;;;;9.98;5.90;;;;;;;1.63;74.12;92999.19;2065613;69;20176;-81
2023/12/07 08:25:17;;;;;;;9.65;5.30;;;;;;;1.63;73.95;93013.06;2069131;69;20141;-83
2023/12/07 08:27:47;;;;;;;7.30;4.70;;;;;;;1.38;72.82;93014.75;2068889;69;20623;-87
2023/12/07 08:30:13;;;;;;;6.80;4.63;;;;;;;1.55;74.04;93017.09;2069214;69;20232;-81
2023/12/07 08:32:38;;;;;;;10.35;5.55;;;;;;;1.38;74.82;93015.50;2068691;69;20164;-80
2023/12/07 08:35:05;;;;;;;10.15;5.15;;;;;;;1.24;75.42;93011.34;2068905;69;20243;-90
2023/12/07 08:37:32;;;;;;;10.65;6.00;;;;;;;1.32;74.61;93014.16;2065486;69;20214;-79
2023/12/07 08:39:58;;;;;;;8.07;5.18;;;;;;;1.91;75.52;93015.09;2069665;69;20149;-85
2023/12/07 08:42:26;;;;;;;7.22;4.47;;;;;;;2.11;73.53;93021.88;2068748;69;20167;-80
2023/12/07 08:44:52;;;;;;;11.70;6.10;;;;;;;2.19;72.35;93021.88;2068872;69;20136;-85
2023/12/07 08:47:18;;;;;;;10.95;6.25;;;;;;;2.59;71.46;93025.00;2068982;69;20133;-90
2023/12/07 08:49:44;;;;;;;14.65;7.18;;;;;;;2.95;70.60;93026.97;2069142;69;20288;-91
2023/12/07 08:52:10;;;;;;;9.05;5.45;;;;;;;2.89;69.78;93027.16;2068808;69;20137;-91
2023/12/07 08:54:36;;;;;;;10.43;5.82;;;;;;;2.58;69.16;93028.34;2068836;69;20322;-92
2023/12/07 08:57:02;;;;;;;10.00;5.10;;;;;;;3.36;69.52;93033.50;2068728;69;20151;-85
2023/12/07 08:59:27;;;;;;;10.32;5.25;;;;;;;3.62;67.62;93035.91;2068733;69;20148;-82
2023/12/07 09:01:53;;;;;;;11.48;6.40;;;;;;;3.86;67.33;93036.63;2068796;69;20145;-86
2023/12/07 09:04:18;;;;;;;11.05;5.88;;;;;;;3.25;65.01;93038.13;2065417;69;20176;-81
2023/12/07 09:06:44;;;;;;;10.43;5.88;;;;;;;4.08;67.87;93031.00;2065261;69;20145;-82
2023/12/07 09:09:11;;;;;;;8.57;5.45;;;;;;;4.28;67.01;93020.19;2068668;69;20144;-85
2023/12/07 09:11:37;;;;;;;8.40;5.38;;;;;;;4.07;65.66;93037.88;2068541;69;20151;-84
2023/12/07 09:14:02;;;;;;;8.60;5.63;;;;;;;4.36;65.45;93032.06;2068565;69;20140;-85
2023/12/07 09:16:28;;;;;;;7.43;4.72;;;;;;;3.67;62.60;93040.56;2065281;69;20168;-86
2023/12/07 09:18:54;;;;;;;10.95;5.38;;;;;;;4.57;63.68;93035.31;2068582;69;20140;-84
2023/12/07 09:21:19;;;;;;;5.22;3.45;;;;;;;4.89;60.86;93036.66;2062476;69;20168;-84
2023/12/07 09:23:45;;;;;;;5.63;3.75;;;;;;;4.96;62.49;93035.88;2068562;69;20151;-86
2023/12/07 09:26:11;;;;;;;6.80;3.88;;;;;;;5.41;61.46;93028.53;2065193;69;20160;-88
2023/12/07 09:28:36;;;;;;;6.95;4.80;;;;;;;5.53;60.44;93034.38;2065341;69;20210;-88
2023/12/07 09:31:02;;;;;;;6.95;4.30;;;;;;;5.56;59.04;93042.38;2068531;69;20512;-87
2023/12/07 09:33:31;;;;;;;6.35;4.57;;;;;;;5.75;59.97;93039.03;2068566;69;20234;-82
2023/12/07 09:35:56;;;;;;;12.65;6.90;;;;;;;6.37;59.83;93042.03;2068925;69;20140;-88
2023/12/07 09:38:22;;;;;;;9.18;6.15;;;;;;;5.73;60.43;93026.97;2065033;69;20529;-86
2023/12/07 09:40:52;;;;;;;10.43;6.10;;;;;;;5.50;60.87;93025.09;2068587;69;20160;-88
2023/12/07 09:43:18;;;;;;;12.55;7.43;;;;;;;6.44;59.95;93029.28;2068533;69;20703;-88
2023/12/07 09:45:44;;;;;;;11.77;6.38;;;;;;;6.84;58.79;93023.41;2067764;69;20140;-88
2023/12/07 09:48:10;;;;;;;13.32;7.00;;;;;;;7.15;57.42;93018.16;2071879;69;20692;-88
2023/12/07 09:50:37;;;;;;;7.82;4.40;;;;;;;7.10;55.52;93019.88;2072005;69;20683;-88
2023/12/07 09:53:02;;;;;;;10.75;5.32;;;;;;;7.67;56.07;93020.72;2068382;69;20164;-89
2023/12/07 09:55:28;;;;;;;10.05;5.25;;;;;;;7.78;55.42;93020.16;2071819;69;20140;-90
2023/12/07 09:57:56;;;;;;;10.40;5.13;;;;;;;6.96;57.21;93020.81;2072023;69;20599;-90
2023/12/07 10:00:22;;;;;;;9.10;5.43;;;;;;;7.46;57.15;93014.88;2071935;69;20576;-90
2023/12/07 10:02:48;;;;;;;9.75;5.82;;;;;;;7.71;55.62;93015.44;2071991;69;20154;-89
2023/12/07 10:05:16;;;;;;;9.23;5.85;;;;;;;7.40;55.98;93020.75;2068596;69;20144;-82
2023/12/07 10:07:48;;;;;;;12.40;6.80;;;;;;;8.10;56.06;93009.91;2072086;69;20221;-81
2023/12/07 10:10:15;;;;;;;9.55;6.07;;;;;;;8.50;54.12;93000.25;2073203;69;20147;-82
2023/12/07 10:12:59;;;;;;;9.80;5.85;;;;;;;9.12;54.41;93003.28;2072882;69;20176;-81
2023/12/07 10:15:25;;;;;;;8.32;5.63;;;;;;;8.29;52.34;92997.97;2072053;69;20604;-81
2023/12/07 10:17:53;;;;;;;7.35;5.15;;;;;;;7.86;52.85;93003.22;2072043;69;20233;-83
2023/12/07 10:20:23;;;;;;;6.95;4.90;;;;;;;8.71;54.23;92982.81;2071932;69;20147;-85
2023/12/07 10:23:09;;;;;;;8.00;5.28;;;;;;;8.10;53.78;92988.22;2071886;69;20588;-85
2023/12/07 10:25:40;;;;;;;7.47;4.03;;;;;;;9.56;54.06;92990.88;2071864;69;20145;-86
2023/12/07 10:28:07;;;;;;;6.95;3.85;;;;;;;10.85;50.25;92994.50;2071757;69;20180;-83
2023/12/07 10:30:34;;;;;;;6.10;4.40;;;;;;;11.00;49.38;92987.72;2071715;69;20222;-85
2023/12/07 10:33:02;;;;;;;6.90;4.47;;;;;;;11.50;48.02;92992.22;2071725;69;20235;-82
2023/12/07 10:35:29;;;;;;;5.15;3.85;;;;;;;9.13;49.88;92991.44;2068522;69;20136;-84
2023/12/07 10:37:55;;;;;;;9.25;3.70;;;;;;;11.50;47.50;92978.13;2071643;69;20619;-84
2023/12/07 10:40:21;;;;;;;4.25;3.20;;;;;;;11.91;48.23;92995.47;2071844;69;20262;-86
2023/12/07 10:42:48;;;;;;;4.03;3.10;;;;;;;13.76;44.91;92991.19;2071726;69;20181;-86
2023/12/07 10:45:15;;;;;;;3.97;3.13;;;;;;;13.79;43.78;92989.94;2071701;69;20144;-85
2023/12/07 10:47:44;;;;;;;7.07;4.63;;;;;;;15.09;42.86;92990.19;2071716;69;20195;-87
2023/12/07 10:50:13;;;;;;;10.10;5.25;;;;;;;16.25;41.90;92989.19;2071636;69;20179;-87
2023/12/07 10:52:44;;;;;;;5.85;3.60;;;;;;;16.95;39.31;92990.81;2071643;69;20582;-88
2023/12/07 10:55:15;;;;;;;4.18;2.08;;;;;;;16.79;38.44;92986.56;2068450;69;20171;-87
2023/12/07 10:57:43;;;;;;;6.57;3.53;;;;;;;17.61;37.33;92977.09;2071843;69;20163;-81
2023/12/07 11:00:10;;;;;;;6.95;4.10;;;;;;;18.93;36.96;92986.25;2071702;69;20234;-82
2023/12/07 11:02:39;;;;;;;8.18;5.60;;;;;;;20.58;33.43;92993.56;2071711;69;20584;-85
2023/12/07 11:05:06;;;;;;;5.57;4.25;;;;;;;19.75;34.08;92993.25;2071598;69;20527;-83
2023/12/07 11:07:50;;;;;;;7.22;4.70;;;;;;;17.03;34.77;92984.72;2071747;69;20144;-81
2023/12/07 11:10:34;;;;;;;11.15;6.90;;;;;;;13.47;38.56;92972.69;2071701;69;20505;-82
2023/12/07 11:13:13;;;;;;;9.23;5.70;;;;;;;11.95;42.44;92975.97;2071882;69;20152;-87
2023/12/07 11:15:39;;;;;;;11.02;7.13;;;;;;;10.74;42.70;92969.88;2071763;69;20204;-87
2023/12/07 11:18:06;;;;;;;9.80;6.47;;;;;;;9.94;44.45;92961.81;2071566;69;20677;-85
2023/12/07 11:20:44;;;;;;;31.27;21.20;;;;;;;9.64;45.04;92960.50;2071768;69;20546;-83
2023/12/07 11:23:10;;;;;;;19.52;10.60;;;;;;;8.32;46.44;92954.72;2071553;69;20206;-90
2023/12/07 11:25:38;;;;;;;20.67;11.93;;;;;;;8.78;46.37;92954.56;2071622;69;20148;-90
2023/12/07 11:28:05;;;;;;;34.20;20.10;;;;;;;8.50;47.13;92946.94;2071840;69;20151;-85